This is the latest recevied weather packets stored in our database for station/object eb1ayw-13. If no packets are shown the sender has not sent any weather packets the latest 10 day(s).
| Time | Temp. | Humidity | Pressure | Rain* | Wind** | Luminosity | Snow |
|---|---|---|---|---|---|---|---|
| 1777822068 | 42.78° C | 13% | 998.5 hPa | - | - | - | - |
| 1777821468 | 44.44° C | 12% | 998 hPa | - | - | - | - |
| 1777820868 | 45° C | 11% | 998 hPa | - | - | - | - |
| 1777820268 | 43.89° C | 12% | 998.2 hPa | - | - | - | - |
| 1777819668 | 45.56° C | 12% | 997.9 hPa | - | - | - | - |
| 1777819068 | 46.11° C | 11% | 998 hPa | - | - | - | - |
| 1777818468 | 42.78° C | 13% | 998.9 hPa | - | - | - | - |
| 1777817868 | 46.11° C | 11% | 998.3 hPa | - | - | - | - |
| 1777817268 | 43.89° C | 12% | 999 hPa | - | - | - | - |
| 1777816667 | 47.22° C | 11% | 998.2 hPa | - | - | - | - |
| 1777816068 | 46.67° C | 11% | 998.4 hPa | - | - | - | - |
| 1777815467 | 46.11° C | 12% | 998.7 hPa | - | - | - | - |
| 1777814868 | 45.56° C | 12% | 999 hPa | - | - | - | - |
| 1777814268 | 45° C | 12% | 999.2 hPa | - | - | - | - |
| 1777813667 | 45.56° C | 12% | 999.1 hPa | - | - | - | - |
| 1777813067 | 44.44° C | 12% | 999.5 hPa | - | - | - | - |
| 1777812467 | 44.44° C | 12% | 999.6 hPa | - | - | - | - |
| 1777811867 | 47.22° C | 11% | 999.2 hPa | - | - | - | - |
| 1777811267 | 43.89° C | 13% | 1000 hPa | - | - | - | - |
| 1777810667 | 46.67° C | 11% | 999.5 hPa | - | - | - | - |
| 1777810067 | 42.78° C | 13% | 1000.5 hPa | - | - | - | - |
| 1777809468 | 43.33° C | 13% | 1000.4 hPa | - | - | - | - |
| 1777808867 | 46.11° C | 11% | 999.8 hPa | - | - | - | - |
| 1777808268 | 42.22° C | 13% | 1001 hPa | - | - | - | - |
| 1777807668 | 45.56° C | 12% | 1000.3 hPa | - | - | - | - |
* Rain since midnight (hover to see other rain measurements)
** Current wind speed in m/s (hover to see current wind gust speed)